createdAt,value
2022-09-09T00:02:30.325Z,4.90
2022-09-09T00:06:06.671Z,5.30
2022-09-09T00:09:38.874Z,5.10
2022-09-09T00:13:20.950Z,4.80
2022-09-09T00:16:53.518Z,5.60
2022-09-09T00:20:28.271Z,5.60
2022-09-09T00:23:58.129Z,4.90
2022-09-09T00:27:31.876Z,5.30
2022-09-09T00:31:03.696Z,5.10
2022-09-09T00:34:34.343Z,5.40
2022-09-09T00:38:20.427Z,5.70
2022-09-09T00:42:01.548Z,5.30
2022-09-09T00:45:54.869Z,5.30
2022-09-09T00:49:33.561Z,5.80
2022-09-09T00:53:13.551Z,6.10
2022-09-09T00:56:46.792Z,5.90
2022-09-09T01:00:30.243Z,5.90
2022-09-09T01:07:23.844Z,6.00
2022-09-09T01:10:55.713Z,6.00
2022-09-09T01:18:13.898Z,5.10
2022-09-09T01:22:03.833Z,5.50
2022-09-09T01:25:53.294Z,5.50
2022-09-09T01:29:25.777Z,5.70
2022-09-09T01:33:03.908Z,5.80
2022-09-09T01:36:37.256Z,5.70
2022-09-09T01:40:04.336Z,5.20
2022-09-09T01:43:33.531Z,5.70
2022-09-09T01:47:02.059Z,4.70
2022-09-09T01:50:29.214Z,5.40
2022-09-09T01:53:57.033Z,4.90
2022-09-09T01:57:30.578Z,5.60
2022-09-09T02:01:04.655Z,5.10
2022-09-09T02:04:42.841Z,4.90
2022-09-09T02:08:20.193Z,4.70
2022-09-09T02:12:03.553Z,5.20
2022-09-09T02:15:48.354Z,5.30
2022-09-09T02:19:28.182Z,5.20
2022-09-09T02:23:10.028Z,5.60
2022-09-09T02:26:41.660Z,5.90
2022-09-09T02:30:12.389Z,5.70
2022-09-09T02:33:49.612Z,6.30
2022-09-09T02:37:18.085Z,5.40
2022-09-09T02:40:47.994Z,5.80
2022-09-09T02:44:18.108Z,5.20
2022-09-09T02:51:27.036Z,6.10
2022-09-09T02:55:00.512Z,5.10
2022-09-09T02:58:28.386Z,5.80
2022-09-09T03:02:04.660Z,5.90
2022-09-09T03:05:33.209Z,5.20
2022-09-09T03:09:03.034Z,5.30
2022-09-09T03:12:30.321Z,5.50
2022-09-09T03:15:57.969Z,5.80
2022-09-09T03:19:25.742Z,6.00
2022-09-09T03:22:52.825Z,5.90
2022-09-09T03:26:20.275Z,6.30
2022-09-09T03:29:52.358Z,6.70
2022-09-09T03:33:23.121Z,7.10
2022-09-09T03:36:54.272Z,7.30
2022-09-09T03:40:21.549Z,7.00
2022-09-09T03:43:48.605Z,8.90
2022-09-09T03:47:16.304Z,8.30
2022-09-09T03:50:51.455Z,7.90
2022-09-09T03:54:18.756Z,7.60
2022-09-09T03:57:50.193Z,8.60
2022-09-09T04:01:19.417Z,8.40
2022-09-09T04:08:33.681Z,8.60
2022-09-09T04:12:01.677Z,8.20
2022-09-09T04:15:31.724Z,8.70
2022-09-09T04:19:01.034Z,8.50
2022-09-09T04:22:28.820Z,8.40
2022-09-09T04:25:57.530Z,8.60
2022-09-09T04:29:24.281Z,8.40
2022-09-09T04:32:52.157Z,8.60
2022-09-09T04:36:21.396Z,8.80
2022-09-09T04:39:49.374Z,9.00
2022-09-09T04:43:27.099Z,9.30
2022-09-09T04:46:54.359Z,9.90
2022-09-09T04:50:26.788Z,10.90
2022-09-09T04:53:58.649Z,10.50
2022-09-09T04:57:25.638Z,11.20
2022-09-09T05:00:53.375Z,11.20
2022-09-09T05:04:23.304Z,10.20
2022-09-09T05:07:53.973Z,10.20
2022-09-09T05:11:25.040Z,10.20
2022-09-09T05:15:09.258Z,10.00
2022-09-09T05:18:36.105Z,10.20
2022-09-09T05:22:04.119Z,10.20
2022-09-09T05:25:37.410Z,10.40
2022-09-09T05:29:08.109Z,10.40
2022-09-09T05:32:35.560Z,10.90
2022-09-09T05:36:05.733Z,11.50
2022-09-09T05:39:34.249Z,11.10
2022-09-09T05:43:05.336Z,10.90
2022-09-09T05:46:32.609Z,12.30
2022-09-09T05:49:59.268Z,11.50
2022-09-09T05:53:38.206Z,10.60
2022-09-09T05:57:04.901Z,11.60
2022-09-09T06:00:32.874Z,11.70
2022-09-09T06:04:04.072Z,12.90
2022-09-09T06:07:32.305Z,13.10
2022-09-09T06:11:05.921Z,14.30
2022-09-09T06:14:33.472Z,14.00
2022-09-09T06:18:00.951Z,14.60
2022-09-09T06:21:30.566Z,14.50
2022-09-09T06:24:58.486Z,14.30
2022-09-09T06:28:26.411Z,13.70
2022-09-09T06:31:53.166Z,13.80
2022-09-09T06:35:24.935Z,13.30
2022-09-09T06:38:51.848Z,14.10
2022-09-09T06:42:20.106Z,14.60
2022-09-09T06:46:06.660Z,14.70
2022-09-09T06:49:35.006Z,13.80
2022-09-09T06:53:03.847Z,14.00
2022-09-09T06:56:32.410Z,14.80
2022-09-09T07:00:02.120Z,14.40
2022-09-09T07:03:31.116Z,15.10
2022-09-09T07:07:00.443Z,14.50
2022-09-09T07:10:29.119Z,15.40
2022-09-09T07:14:00.099Z,14.60
2022-09-09T07:17:27.365Z,15.60
2022-09-09T07:21:00.811Z,15.90
2022-09-09T07:24:31.868Z,17.10
2022-09-09T07:27:59.945Z,17.90
2022-09-09T07:31:29.143Z,19.20
2022-09-09T07:34:56.412Z,19.50
2022-09-09T07:38:24.160Z,20.70
2022-09-09T07:41:52.368Z,18.20
2022-09-09T07:45:21.958Z,18.20
2022-09-09T07:48:52.421Z,18.10
2022-09-09T07:52:21.896Z,19.70
2022-09-09T07:55:52.413Z,19.50
2022-09-09T07:59:20.672Z,18.90
2022-09-09T08:02:48.768Z,18.70
2022-09-09T08:06:16.981Z,18.90
2022-09-09T08:09:43.686Z,18.10
2022-09-09T08:13:18.486Z,18.70
2022-09-09T08:16:51.002Z,19.60
2022-09-09T08:20:24.438Z,19.20
2022-09-09T08:23:57.852Z,18.70
2022-09-09T08:27:25.516Z,20.10
2022-09-09T08:30:54.634Z,19.10
2022-09-09T08:34:22.300Z,21.00
2022-09-09T08:37:51.621Z,22.20
2022-09-09T08:41:54.792Z,21.50
2022-09-09T08:45:31.981Z,21.60
2022-09-09T08:49:07.122Z,22.00
2022-09-09T08:52:40.730Z,24.00
2022-09-09T08:56:15.433Z,21.50
2022-09-09T08:59:57.228Z,23.50
2022-09-09T09:03:36.668Z,22.50
2022-09-09T09:07:16.919Z,23.90
2022-09-09T09:10:51.094Z,22.70
2022-09-09T09:14:24.754Z,24.50
2022-09-09T09:17:53.755Z,23.90
2022-09-09T09:21:32.273Z,25.00
2022-09-09T09:25:04.063Z,24.20
2022-09-09T09:28:34.457Z,23.20
2022-09-09T09:32:14.995Z,22.30
2022-09-09T09:35:44.745Z,24.60
2022-09-09T09:43:25.057Z,26.70
2022-09-09T09:46:53.025Z,26.20
2022-09-09T09:50:24.133Z,28.00
2022-09-09T09:53:54.263Z,27.70
2022-09-09T09:57:26.596Z,28.40
2022-09-09T10:00:56.325Z,30.80
2022-09-09T10:04:26.150Z,29.10
2022-09-09T10:08:08.067Z,27.30
2022-09-09T10:12:11.060Z,27.80
2022-09-09T10:15:47.702Z,27.90
2022-09-09T10:19:18.997Z,27.00
2022-09-09T10:22:52.418Z,26.60
2022-09-09T10:26:36.938Z,25.70
2022-09-09T10:30:18.576Z,25.10
2022-09-09T10:33:52.590Z,25.50
2022-09-09T10:37:33.259Z,25.20
2022-09-09T10:41:15.661Z,26.20
2022-09-09T10:44:59.434Z,24.70
2022-09-09T10:48:42.501Z,25.80
2022-09-09T10:52:18.039Z,29.50
2022-09-09T10:55:47.878Z,29.10
2022-09-09T10:59:22.131Z,29.40
2022-09-09T11:02:50.877Z,29.60
2022-09-09T11:06:21.716Z,27.70
2022-09-09T11:10:01.462Z,27.00
2022-09-09T11:13:34.833Z,26.00
2022-09-09T11:17:06.552Z,25.80
2022-09-09T11:20:33.709Z,27.20
2022-09-09T11:24:04.149Z,26.70
2022-09-09T11:27:40.539Z,27.30
2022-09-09T11:31:24.727Z,26.40
2022-09-09T11:35:03.852Z,23.60
2022-09-09T11:38:36.121Z,24.90
2022-09-09T11:42:19.046Z,28.30
2022-09-09T11:45:55.136Z,30.40
2022-09-09T11:49:42.903Z,31.50
2022-09-09T11:53:25.995Z,28.60
2022-09-09T11:56:53.290Z,29.50
2022-09-09T12:04:21.315Z,33.40
2022-09-09T12:07:56.221Z,31.40
2022-09-09T12:11:33.904Z,29.90
2022-09-09T12:15:22.067Z,31.90
2022-09-09T12:18:53.078Z,28.20
2022-09-09T12:22:35.615Z,28.10
2022-09-09T12:26:18.878Z,28.50
2022-09-09T12:29:56.839Z,27.30
2022-09-09T12:33:27.443Z,26.80
2022-09-09T12:37:00.645Z,25.40
2022-09-09T12:40:33.501Z,22.60
2022-09-09T12:44:11.996Z,21.80
2022-09-09T12:47:47.131Z,22.40
2022-09-09T12:51:26.409Z,20.70
2022-09-09T12:54:55.094Z,19.90
2022-09-09T12:58:29.716Z,18.40
2022-09-09T13:02:01.579Z,19.40
2022-09-09T13:05:37.638Z,18.00
2022-09-09T13:09:21.163Z,18.50
2022-09-09T13:12:51.298Z,16.00
2022-09-09T13:16:33.423Z,16.40
2022-09-09T13:20:19.202Z,18.00
2022-09-09T13:23:53.984Z,17.30
2022-09-09T13:27:34.978Z,18.30
2022-09-09T13:31:32.964Z,17.00
2022-09-09T13:35:08.193Z,15.10
2022-09-09T13:38:39.808Z,14.20
2022-09-09T13:42:22.845Z,15.50
2022-09-09T13:45:59.349Z,14.60
2022-09-09T13:49:34.997Z,15.50
2022-09-09T13:53:05.413Z,15.50
2022-09-09T13:56:35.074Z,14.60
2022-09-09T14:00:05.405Z,14.40
2022-09-09T14:03:38.887Z,15.60
2022-09-09T14:07:08.815Z,14.90
2022-09-09T14:10:43.807Z,15.70
2022-09-09T14:14:41.138Z,16.10
2022-09-09T14:18:15.356Z,15.40
2022-09-09T14:21:54.931Z,14.40
2022-09-09T14:25:37.175Z,14.40
2022-09-09T14:29:06.959Z,14.80
2022-09-09T14:32:48.838Z,14.00
2022-09-09T14:36:24.415Z,13.90
2022-09-09T14:39:57.634Z,14.70
2022-09-09T14:43:31.573Z,14.80
2022-09-09T14:47:00.372Z,14.30
2022-09-09T14:50:28.227Z,15.00
2022-09-09T14:54:03.236Z,15.00
2022-09-09T14:57:33.941Z,14.80
2022-09-09T15:01:24.898Z,14.40
2022-09-09T15:11:54.680Z,15.10
2022-09-09T15:15:22.324Z,14.70
2022-09-09T15:18:56.861Z,15.50
2022-09-09T15:22:35.345Z,15.00
2022-09-09T15:26:02.410Z,15.90
2022-09-09T15:29:32.457Z,14.80
2022-09-09T15:32:59.874Z,15.40
2022-09-09T15:36:34.554Z,14.20
2022-09-09T15:40:02.811Z,14.00
2022-09-09T15:43:32.776Z,15.30
2022-09-09T15:47:08.578Z,15.20
2022-09-09T15:50:41.980Z,15.70
2022-09-09T15:54:14.618Z,15.20
2022-09-09T15:57:42.222Z,15.80
2022-09-09T16:01:13.891Z,15.90
2022-09-09T16:04:43.961Z,16.40
2022-09-09T16:08:12.557Z,16.40
2022-09-09T16:11:42.361Z,16.20
2022-09-09T16:15:13.960Z,17.60
2022-09-09T16:18:42.693Z,17.60
2022-09-09T16:22:09.747Z,17.60
2022-09-09T16:25:39.149Z,18.00
2022-09-09T16:29:10.343Z,18.50
2022-09-09T16:32:38.111Z,17.40
2022-09-09T16:36:12.222Z,16.70
2022-09-09T16:39:43.517Z,16.70
2022-09-09T16:43:17.410Z,17.70
2022-09-09T16:46:47.363Z,16.90
2022-09-09T16:50:16.183Z,17.70
2022-09-09T16:53:45.752Z,17.30
2022-09-09T16:57:13.677Z,17.60
2022-09-09T17:00:41.534Z,17.90
2022-09-09T17:04:11.958Z,17.50
2022-09-09T17:07:41.553Z,17.40
2022-09-09T17:11:14.808Z,17.60
2022-09-09T17:14:44.252Z,18.50
2022-09-09T17:18:13.214Z,18.20
2022-09-09T17:21:59.936Z,18.30
2022-09-09T17:25:29.814Z,17.70
2022-09-09T17:29:00.618Z,18.40
2022-09-09T17:32:27.616Z,19.00
2022-09-09T17:35:56.105Z,18.40
2022-09-09T17:39:28.852Z,17.90
2022-09-09T17:42:56.374Z,19.50
2022-09-09T17:46:26.569Z,19.00
2022-09-09T17:49:56.797Z,20.20
2022-09-09T17:53:26.866Z,20.50
2022-09-09T17:56:58.816Z,20.00
2022-09-09T18:00:26.762Z,22.00
2022-09-09T18:03:58.372Z,21.30
2022-09-09T18:07:26.525Z,20.80
2022-09-09T18:10:59.044Z,22.20
2022-09-09T18:14:29.140Z,21.80
2022-09-09T18:17:56.151Z,21.00
2022-09-09T18:21:26.174Z,20.00
2022-09-09T18:24:53.433Z,20.30
2022-09-09T18:28:24.505Z,19.90
2022-09-09T18:31:53.461Z,20.20
2022-09-09T18:35:20.603Z,19.50
2022-09-09T18:38:51.644Z,20.30
2022-09-09T18:42:20.034Z,20.00
2022-09-09T18:45:51.085Z,19.30
2022-09-09T18:49:20.081Z,19.00
2022-09-09T18:52:47.777Z,19.50
2022-09-09T18:56:19.169Z,20.10
2022-09-09T18:59:50.583Z,20.00
2022-09-09T19:03:17.828Z,19.20
2022-09-09T19:06:48.179Z,20.50
2022-09-09T19:10:20.802Z,20.90
2022-09-09T19:14:03.720Z,21.90
2022-09-09T19:17:35.597Z,22.00
2022-09-09T19:21:19.819Z,22.40
2022-09-09T19:24:52.985Z,22.20
2022-09-09T19:32:36.417Z,21.90
2022-09-09T19:35:58.046Z,22.90
2022-09-09T19:39:27.606Z,22.80
2022-09-09T19:42:54.259Z,22.30
2022-09-09T19:46:28.120Z,23.10
2022-09-09T19:49:58.236Z,23.50
2022-09-09T19:53:28.745Z,23.60
2022-09-09T19:57:03.929Z,23.00
2022-09-09T20:00:32.131Z,24.80
2022-09-09T20:04:06.707Z,25.50
2022-09-09T20:07:36.101Z,28.20
2022-09-09T20:11:05.587Z,28.10
2022-09-09T20:14:39.368Z,27.50
2022-09-09T20:18:08.457Z,27.50
2022-09-09T20:21:51.365Z,28.90
2022-09-09T20:25:26.593Z,28.90
2022-09-09T20:29:00.788Z,29.60
2022-09-09T20:32:32.387Z,29.40
2022-09-09T20:36:00.551Z,31.60
2022-09-09T20:39:34.190Z,34.40
2022-09-09T20:43:04.423Z,31.70
2022-09-09T20:46:36.420Z,33.40
2022-09-09T20:50:19.799Z,36.20
2022-09-09T20:53:51.341Z,32.70
2022-09-09T20:57:23.938Z,33.60
2022-09-09T21:04:54.133Z,33.00
2022-09-09T21:08:24.062Z,32.30
2022-09-09T21:11:59.027Z,33.00
2022-09-09T21:15:32.462Z,34.10
2022-09-09T21:19:01.792Z,33.00
2022-09-09T21:22:33.845Z,34.30
2022-09-09T21:26:10.636Z,35.90
2022-09-09T21:29:41.273Z,33.90
2022-09-09T21:33:18.085Z,34.60
2022-09-09T21:36:48.043Z,36.20
2022-09-09T21:40:17.549Z,35.70
2022-09-09T21:43:48.510Z,36.00
2022-09-09T21:47:24.968Z,35.40
2022-09-09T21:54:41.561Z,36.60
2022-09-09T21:58:10.094Z,38.20
2022-09-09T22:02:07.379Z,39.20
2022-09-09T22:05:43.367Z,39.80
2022-09-09T22:09:10.716Z,39.90
2022-09-09T22:12:37.658Z,39.70
2022-09-09T22:16:09.206Z,37.80
2022-09-09T22:19:58.430Z,37.60
2022-09-09T22:23:55.834Z,35.00
2022-09-09T22:27:22.585Z,35.60
2022-09-09T22:30:49.151Z,37.70
2022-09-09T22:34:18.358Z,36.90
2022-09-09T22:37:45.165Z,36.70
2022-09-09T22:41:15.272Z,37.20
2022-09-09T22:44:43.445Z,35.20
2022-09-09T22:48:12.083Z,34.80
2022-09-09T22:51:39.221Z,37.50
2022-09-09T22:55:11.473Z,34.60
2022-09-09T22:58:40.087Z,37.00
2022-09-09T23:02:14.119Z,35.10
2022-09-09T23:05:41.553Z,37.70
2022-09-09T23:09:09.316Z,36.80
2022-09-09T23:12:37.026Z,36.30
2022-09-09T23:16:12.187Z,35.20
2022-09-09T23:19:40.514Z,36.10
2022-09-09T23:23:07.445Z,36.30
2022-09-09T23:26:35.515Z,36.50
2022-09-09T23:30:02.131Z,35.40
2022-09-09T23:33:32.505Z,36.30
2022-09-09T23:37:01.456Z,39.30
2022-09-09T23:40:28.357Z,39.10
2022-09-09T23:43:56.383Z,39.50
2022-09-09T23:47:25.663Z,41.60
2022-09-09T23:50:52.878Z,41.80
2022-09-09T23:54:19.795Z,39.40
2022-09-09T23:57:47.229Z,39.60
